Time;durP1;ratioP1;P1;durP2;ratioP2;P2;SDS_P1;SDS_P2;PMS_P1;PMS_P2;Temp;Humidity;BMP_temperature;BMP_pressure;BME280_temperature;BME280_humidity;BME280_pressure;Samples;Min_cycle;Max_cycle;Signal;HPM_P1;HPM_P2
2022/10/31 00:02:18;;;;;;;3.30;2.30;;;12.20;73.60;;;;;;5087063;28;20040;-60
2022/10/31 00:04:44;;;;;;;3.50;2.40;;;12.20;73.80;;;;;;5080558;28;20438;-61
2022/10/31 00:07:10;;;;;;;2.55;2.05;;;12.20;73.90;;;;;;5073389;28;20040;-61
2022/10/31 00:09:35;;;;;;;2.25;2.05;;;12.10;73.80;;;;;;5076655;28;20074;-62
2022/10/31 00:12:01;;;;;;;2.30;2.10;;;12.10;73.90;;;;;;5087418;28;20555;-61
2022/10/31 00:14:26;;;;;;;2.20;2.05;;;12.10;73.90;;;;;;5072838;28;20095;-61
2022/10/31 00:16:52;;;;;;;1.77;1.67;;;12.10;74.00;;;;;;5074473;28;20029;-61
2022/10/31 00:19:18;;;;;;;3.40;1.80;;;12.10;74.10;;;;;;5081582;28;20102;-62
2022/10/31 00:21:43;;;;;;;2.70;1.88;;;12.10;74.10;;;;;;5075052;28;20386;-61
2022/10/31 00:24:10;;;;;;;3.00;1.95;;;12.00;74.20;;;;;;5077549;28;20036;-61
2022/10/31 00:26:35;;;;;;;2.70;1.83;;;12.00;74.90;;;;;;5070872;28;20021;-61
2022/10/31 00:29:01;;;;;;;2.97;2.05;;;12.00;74.30;;;;;;5071339;28;20037;-61
2022/10/31 00:31:26;;;;;;;2.60;1.73;;;12.00;74.30;;;;;;5072733;28;20029;-62
2022/10/31 00:33:52;;;;;;;1.83;1.70;;;12.00;74.40;;;;;;5070638;28;20085;-61
2022/10/31 00:36:19;;;;;;;2.08;1.88;;;12.00;74.60;;;;;;5074085;28;20460;-62
2022/10/31 00:38:46;;;;;;;3.42;2.25;;;12.00;74.60;;;;;;5073711;28;20032;-61
2022/10/31 00:41:12;;;;;;;2.17;1.77;;;11.90;74.60;;;;;;5072034;28;20032;-61
2022/10/31 00:43:38;;;;;;;3.13;2.20;;;11.90;74.60;;;;;;5068873;28;20040;-61
2022/10/31 00:46:04;;;;;;;1.70;1.60;;;11.90;74.80;;;;;;5072246;28;20515;-61
2022/10/31 00:48:30;;;;;;;2.15;1.80;;;11.90;74.90;;;;;;5071742;28;20043;-61
2022/10/31 00:50:56;;;;;;;2.00;1.73;;;11.90;74.80;;;;;;5071006;28;20024;-62
2022/10/31 00:53:22;;;;;;;2.78;2.20;;;11.90;74.90;;;;;;5070711;28;20026;-61
2022/10/31 00:55:47;;;;;;;3.28;2.20;;;11.90;75.00;;;;;;5072112;28;20098;-61
2022/10/31 00:58:13;;;;;;;2.10;1.90;;;11.80;74.90;;;;;;5061753;28;20028;-61
2022/10/31 01:00:39;;;;;;;2.53;1.98;;;11.90;74.90;;;;;;5070044;28;20032;-61
2022/10/31 01:03:05;;;;;;;2.45;1.90;;;11.80;75.10;;;;;;5061936;28;20036;-61
2022/10/31 01:05:30;;;;;;;2.20;2.05;;;11.80;75.10;;;;;;5055099;28;20079;-62
2022/10/31 01:07:56;;;;;;;3.58;2.00;;;11.80;75.20;;;;;;5060839;28;20036;-61
2022/10/31 01:10:22;;;;;;;3.45;2.08;;;11.80;75.20;;;;;;5070590;28;20029;-62
2022/10/31 01:12:49;;;;;;;3.00;2.10;;;11.80;75.20;;;;;;5064294;28;20032;-61
2022/10/31 01:15:17;;;;;;;3.28;2.00;;;11.80;75.40;;;;;;5055844;28;20107;-59
2022/10/31 01:17:43;;;;;;;2.13;1.92;;;11.80;75.40;;;;;;5061097;28;20469;-61
2022/10/31 01:20:11;;;;;;;2.30;2.10;;;11.70;75.40;;;;;;5053672;28;20076;-61
2022/10/31 01:22:37;;;;;;;2.03;1.80;;;11.70;75.60;;;;;;5054390;28;20021;-61
2022/10/31 01:25:03;;;;;;;3.53;2.00;;;11.70;75.70;;;;;;5064176;28;20027;-61
2022/10/31 01:27:28;;;;;;;2.05;1.85;;;11.70;75.70;;;;;;5055411;28;20390;-61
2022/10/31 01:29:54;;;;;;;3.28;1.98;;;11.60;75.70;;;;;;5070301;28;20025;-62
2022/10/31 01:32:20;;;;;;;2.40;2.10;;;11.60;75.80;;;;;;5063773;28;20081;-61
2022/10/31 01:34:45;;;;;;;2.70;2.20;;;11.60;75.90;;;;;;5065423;28;20024;-61
2022/10/31 01:37:11;;;;;;;2.40;2.20;;;11.60;76.00;;;;;;5053438;28;20697;-61
2022/10/31 01:39:37;;;;;;;3.60;2.38;;;11.60;76.10;;;;;;5060601;28;20346;-61
2022/10/31 01:42:02;;;;;;;2.33;1.90;;;11.60;76.20;;;;;;5064363;28;20036;-61
2022/10/31 01:44:28;;;;;;;2.55;2.35;;;11.60;76.40;;;;;;5056796;28;20081;-61
2022/10/31 01:46:59;;;;;;;2.80;2.30;;;11.60;76.30;;;;;;5064693;28;20404;-62
2022/10/31 01:49:57;;;;;;;3.10;2.00;;;11.60;76.30;;;;;;5057342;28;20028;-61
2022/10/31 01:52:25;;;;;;;2.42;2.22;;;11.50;76.20;;;;;;5045464;28;20117;-62
2022/10/31 01:55:04;;;;;;;3.05;2.28;;;11.50;76.40;;;;;;5070124;28;20357;-62
2022/10/31 01:57:33;;;;;;;2.45;2.25;;;11.50;76.40;;;;;;5080463;28;20032;-61
2022/10/31 02:00:03;;;;;;;2.78;2.28;;;11.50;76.50;;;;;;5077306;28;20024;-62
2022/10/31 02:02:31;;;;;;;2.40;2.20;;;11.50;76.60;;;;;;5080021;28;20029;-61
2022/10/31 02:05:01;;;;;;;2.72;1.70;;;11.40;76.60;;;;;;5070637;28;20087;-61
2022/10/31 02:07:33;;;;;;;1.75;1.65;;;11.40;77.30;;;;;;5071563;28;20024;-59
2022/10/31 02:10:01;;;;;;;2.72;2.25;;;11.40;76.70;;;;;;5083513;28;20039;-61
2022/10/31 02:12:28;;;;;;;3.13;2.33;;;11.40;76.80;;;;;;5082608;28;20032;-60
2022/10/31 02:14:54;;;;;;;3.35;2.20;;;11.30;76.90;;;;;;5077274;28;20021;-61
2022/10/31 02:17:20;;;;;;;2.60;2.15;;;11.30;77.00;;;;;;5080798;28;20032;-62
2022/10/31 02:19:54;;;;;;;2.78;2.08;;;11.30;77.20;;;;;;5080865;28;20034;-62
2022/10/31 02:22:30;;;;;;;3.67;2.30;;;11.20;77.30;;;;;;5083213;28;20028;-61
2022/10/31 02:25:19;;;;;;;2.50;2.30;;;11.20;77.30;;;;;;5072824;28;20496;-61
2022/10/31 02:27:48;;;;;;;2.70;2.10;;;11.20;77.40;;;;;;5069855;28;20117;-62
2022/10/31 02:30:19;;;;;;;3.90;2.65;;;11.20;77.60;;;;;;5080212;28;20487;-61
2022/10/31 02:32:48;;;;;;;;;;;11.20;77.70;;;;;;5086345;28;20031;-62
2022/10/31 02:35:38;;;;;;;3.00;2.22;;;11.10;77.80;;;;;;5068598;28;19974;-61
2022/10/31 02:38:16;;;;;;;5.72;2.60;;;11.10;77.80;;;;;;5069878;28;20027;-61
2022/10/31 02:41:18;;;;;;;3.45;2.28;;;11.10;77.80;;;;;;5069751;28;20119;-61
2022/10/31 02:44:02;;;;;;;2.97;1.90;;;11.00;77.90;;;;;;5066573;28;20048;-61
2022/10/31 02:47:05;;;;;;;2.65;2.30;;;11.00;78.10;;;;;;5058729;28;20091;-61
2022/10/31 02:49:38;;;;;;;2.67;2.20;;;11.00;78.10;;;;;;5074009;28;20475;-63
2022/10/31 02:52:17;;;;;;;3.20;2.53;;;11.00;78.30;;;;;;5073660;28;20110;-61
2022/10/31 02:54:45;;;;;;;2.72;2.30;;;11.00;78.40;;;;;;5094932;28;20550;-61
2022/10/31 02:57:12;;;;;;;3.83;2.17;;;10.90;78.40;;;;;;5076581;28;20960;-61
2022/10/31 02:59:44;;;;;;;2.75;2.10;;;10.90;78.60;;;;;;5074732;28;20020;-61
2022/10/31 03:02:51;;;;;;;2.13;1.95;;;10.90;79.20;;;;;;5073769;28;20039;-62
2022/10/31 03:06:14;;;;;;;3.53;2.40;;;10.90;78.50;;;;;;5073381;28;20031;-61
2022/10/31 03:08:45;;;;;;;3.92;2.60;;;10.90;78.60;;;;;;4990893;28;20065;-61
2022/10/31 03:11:11;;;;;;;4.10;2.50;;;10.80;78.80;;;;;;4990857;28;20446;-61
2022/10/31 03:13:59;;;;;;;2.95;2.17;;;10.80;78.90;;;;;;5032996;28;20036;-61
2022/10/31 03:16:47;;;;;;;2.00;1.90;;;10.80;79.10;;;;;;5068715;28;20063;-61
2022/10/31 03:19:39;;;;;;;4.22;2.50;;;10.80;79.10;;;;;;5071759;28;20377;-61
2022/10/31 03:22:15;;;;;;;2.28;2.03;;;10.80;79.10;;;;;;5066006;28;20113;-61
2022/10/31 03:24:43;;;;;;;3.47;2.38;;;10.80;79.20;;;;;;5073974;28;20039;-62
2022/10/31 03:27:12;;;;;;;3.17;2.80;;;10.80;79.30;;;;;;5073352;28;20032;-61
2022/10/31 03:29:40;;;;;;;3.38;2.65;;;10.80;79.40;;;;;;5080541;28;20035;-61
2022/10/31 03:32:16;;;;;;;2.70;2.20;;;10.80;79.70;;;;;;5075365;28;20020;-61
2022/10/31 03:34:44;;;;;;;5.05;2.83;;;10.70;79.60;;;;;;5076631;28;20399;-61
2022/10/31 03:37:16;;;;;;;2.83;2.15;;;10.70;79.70;;;;;;5073688;28;20029;-61
2022/10/31 03:39:44;;;;;;;5.35;2.72;;;10.70;79.80;;;;;;5078025;28;20387;-61
2022/10/31 03:42:21;;;;;;;2.33;2.05;;;10.70;79.80;;;;;;5081991;28;20500;-61
2022/10/31 03:44:53;;;;;;;3.33;2.40;;;10.70;79.90;;;;;;5068124;28;20032;-62
2022/10/31 03:47:19;;;;;;;4.38;2.50;;;10.70;79.90;;;;;;5093525;28;20020;-61
2022/10/31 03:49:44;;;;;;;3.22;2.25;;;10.70;79.90;;;;;;5076644;28;20041;-61
2022/10/31 03:52:28;;;;;;;3.15;2.35;;;10.70;80.00;;;;;;5083076;28;20435;-61
2022/10/31 03:55:03;;;;;;;2.55;2.30;;;10.70;80.10;;;;;;5086207;28;20327;-61
2022/10/31 03:57:44;;;;;;;5.88;3.30;;;10.70;80.10;;;;;;5080436;28;20037;-61
2022/10/31 04:00:13;;;;;;;3.75;2.42;;;10.70;80.20;;;;;;5072242;28;20024;-61
2022/10/31 04:02:43;;;;;;;3.47;2.50;;;10.70;80.30;;;;;;5072924;28;20298;-61
2022/10/31 04:05:11;;;;;;;3.10;2.53;;;10.70;80.20;;;;;;5072275;28;20028;-61
2022/10/31 04:07:42;;;;;;;4.43;2.97;;;10.80;80.20;;;;;;5068960;28;20031;-61
2022/10/31 04:10:12;;;;;;;3.15;2.15;;;10.80;80.20;;;;;;5073044;28;20024;-61
2022/10/31 04:12:39;;;;;;;3.20;2.50;;;10.80;80.20;;;;;;5072390;28;20036;-60
2022/10/31 04:15:07;;;;;;;2.53;1.95;;;10.80;80.20;;;;;;5074634;28;20154;-61
2022/10/31 04:17:37;;;;;;;2.58;2.38;;;10.90;80.10;;;;;;5073401;28;20608;-62
2022/10/31 04:20:03;;;;;;;3.15;2.15;;;10.90;80.10;;;;;;5074663;28;20016;-61
2022/10/31 04:22:29;;;;;;;2.42;2.22;;;10.90;80.70;;;;;;5073056;28;20032;-62
2022/10/31 04:24:55;;;;;;;4.03;2.63;;;10.90;80.00;;;;;;5074269;28;20031;-62
2022/10/31 04:27:20;;;;;;;4.38;2.13;;;10.90;80.00;;;;;;5068574;28;20242;-62
2022/10/31 04:29:46;;;;;;;3.50;2.58;;;10.90;80.00;;;;;;5073453;28;20074;-61
2022/10/31 04:32:11;;;;;;;2.15;1.95;;;11.00;80.00;;;;;;5073101;28;20028;-61
2022/10/31 04:34:37;;;;;;;2.65;2.45;;;11.00;80.00;;;;;;5074151;28;20024;-61
2022/10/31 04:37:03;;;;;;;2.97;2.67;;;11.00;80.10;;;;;;5072816;28;20036;-61
2022/10/31 04:39:28;;;;;;;3.80;2.50;;;11.00;80.20;;;;;;5075121;28;20060;-61
2022/10/31 04:41:54;;;;;;;3.22;2.40;;;11.00;80.30;;;;;;5071621;28;20123;-61
2022/10/31 04:44:20;;;;;;;3.60;2.67;;;11.00;80.40;;;;;;5077184;28;20037;-61
2022/10/31 04:46:45;;;;;;;3.03;2.45;;;11.00;81.10;;;;;;5074770;28;20119;-61
2022/10/31 04:49:11;;;;;;;2.10;1.90;;;11.00;80.90;;;;;;5079580;28;20032;-61
2022/10/31 04:51:37;;;;;;;3.50;2.40;;;11.00;80.80;;;;;;5081382;28;20032;-62
2022/10/31 04:54:02;;;;;;;2.97;2.38;;;11.00;80.90;;;;;;5080693;28;20516;-61
2022/10/31 04:56:28;;;;;;;3.47;2.20;;;11.00;80.90;;;;;;5084486;28;20045;-61
2022/10/31 04:58:54;;;;;;;3.00;2.70;;;11.10;81.10;;;;;;5077525;28;20020;-61
2022/10/31 05:01:19;;;;;;;3.55;2.17;;;11.10;81.10;;;;;;5087752;28;20034;-62
2022/10/31 05:03:45;;;;;;;2.45;2.05;;;11.10;81.00;;;;;;5086222;28;20635;-61
2022/10/31 05:06:10;;;;;;;4.00;2.60;;;11.10;80.80;;;;;;5078673;28;20110;-61
2022/10/31 05:08:36;;;;;;;2.67;2.00;;;11.10;80.50;;;;;;5076156;28;20023;-62
2022/10/31 05:11:03;;;;;;;2.10;1.92;;;11.20;80.20;;;;;;5079631;28;20392;-62
2022/10/31 05:13:29;;;;;;;1.58;1.48;;;11.20;80.10;;;;;;5071159;28;20031;-61
2022/10/31 05:15:55;;;;;;;1.25;1.15;;;11.20;79.10;;;;;;5072575;28;20032;-62
2022/10/31 05:18:21;;;;;;;1.63;1.48;;;11.20;78.40;;;;;;5070548;28;20068;-62
2022/10/31 05:20:46;;;;;;;1.95;1.55;;;11.20;77.30;;;;;;5071484;28;20074;-61
2022/10/31 05:23:12;;;;;;;2.30;1.52;;;11.20;76.50;;;;;;5070135;28;20037;-62
2022/10/31 05:25:40;;;;;;;3.38;1.00;;;11.20;75.80;;;;;;5061369;28;20033;-62
2022/10/31 05:28:06;;;;;;;1.40;1.23;;;11.20;75.00;;;;;;5087027;28;20078;-62
2022/10/31 05:30:32;;;;;;;1.40;1.30;;;11.20;74.50;;;;;;5084306;28;20392;-62
2022/10/31 05:32:58;;;;;;;1.23;1.00;;;11.20;73.60;;;;;;5070731;28;20462;-62
2022/10/31 05:35:30;;;;;;;1.30;1.20;;;11.10;73.30;;;;;;5072914;28;20107;-62
2022/10/31 05:37:57;;;;;;;1.58;1.40;;;11.10;72.80;;;;;;5084668;28;20095;-63
2022/10/31 05:40:23;;;;;;;1.13;1.10;;;11.10;73.10;;;;;;5081041;28;20028;-63
2022/10/31 05:42:51;;;;;;;1.30;1.20;;;11.10;73.20;;;;;;5075736;28;20063;-62
2022/10/31 05:45:18;;;;;;;1.75;1.35;;;11.20;73.00;;;;;;5089267;28;20475;-62
2022/10/31 05:48:10;;;;;;;1.42;1.33;;;11.20;73.20;;;;;;5074392;28;20487;-62
2022/10/31 05:50:36;;;;;;;1.33;1.23;;;11.20;72.00;;;;;;5067022;28;20068;-62
2022/10/31 05:53:04;;;;;;;0.95;0.95;;;11.30;72.20;;;;;;5074991;28;20067;-61
2022/10/31 05:55:30;;;;;;;1.30;0.88;;;11.30;72.20;;;;;;5061158;28;20048;-61
2022/10/31 05:57:56;;;;;;;1.35;1.25;;;11.40;71.70;;;;;;5064293;28;20028;-62
2022/10/31 06:00:24;;;;;;;1.77;1.00;;;11.40;71.40;;;;;;5063766;28;20097;-61
2022/10/31 19:33:27;;;;;;;2.95;2.30;;;9.50;58.50;;;;;;4866054;28;1315915;-60
2022/10/31 19:35:59;;;;;;;2.22;2.03;;;9.40;58.90;;;;;;5103403;28;20024;-59
2022/10/31 19:38:26;;;;;;;2.58;2.10;;;9.50;59.20;;;;;;5108735;28;20028;-59
2022/10/31 19:41:00;;;;;;;2.13;2.00;;;9.50;59.30;;;;;;5108723;28;20103;-59
2022/10/31 19:43:27;;;;;;;2.55;2.35;;;9.50;59.40;;;;;;5108442;28;20115;-60
2022/10/31 19:45:54;;;;;;;3.72;2.30;;;9.50;59.50;;;;;;5109012;28;20012;-60
2022/10/31 19:48:19;;;;;;;2.30;2.03;;;9.50;59.40;;;;;;5108826;28;20015;-60
2022/10/31 19:50:45;;;;;;;3.25;2.33;;;9.50;59.50;;;;;;5108435;28;20367;-59
2022/10/31 19:53:11;;;;;;;2.25;2.05;;;9.50;59.50;;;;;;5107574;28;20036;-60
2022/10/31 19:55:39;;;;;;;2.05;1.85;;;9.50;59.40;;;;;;5106718;28;20130;-59
2022/10/31 19:58:04;;;;;;;2.80;2.20;;;9.50;59.30;;;;;;5107198;28;20031;-60
2022/10/31 20:00:30;;;;;;;3.78;2.40;;;9.50;59.30;;;;;;5107010;28;20024;-60
2022/10/31 20:02:56;;;;;;;2.72;2.35;;;9.50;59.20;;;;;;5105292;28;20375;-59
2022/10/31 20:05:21;;;;;;;2.63;2.40;;;9.50;59.00;;;;;;5099930;28;20169;-59
2022/10/31 20:07:47;;;;;;;2.42;2.22;;;9.50;59.10;;;;;;5105060;28;20036;-59
2022/10/31 20:10:12;;;;;;;2.50;2.20;;;9.60;59.00;;;;;;5106550;28;20386;-59
2022/10/31 20:12:38;;;;;;;2.70;2.17;;;9.60;59.10;;;;;;5108087;28;20027;-59
2022/10/31 20:15:04;;;;;;;4.40;2.33;;;9.50;59.20;;;;;;5107317;28;20111;-59
2022/10/31 20:17:30;;;;;;;2.47;2.28;;;9.50;59.40;;;;;;5108088;28;20552;-60
2022/10/31 20:19:55;;;;;;;4.35;2.65;;;9.50;59.30;;;;;;5108221;28;20150;-59
2022/10/31 20:22:21;;;;;;;3.05;2.38;;;9.50;59.10;;;;;;5107608;28;20141;-59
2022/10/31 20:24:46;;;;;;;3.97;2.60;;;9.50;59.00;;;;;;5107058;28;20024;-59
2022/10/31 20:27:12;;;;;;;2.90;2.35;;;9.50;59.00;;;;;;5097443;28;20120;-60
2022/10/31 20:29:38;;;;;;;2.50;2.30;;;9.50;58.90;;;;;;5094386;28;20024;-59
2022/10/31 20:32:04;;;;;;;3.85;2.90;;;9.50;58.90;;;;;;5094511;28;20507;-60
2022/10/31 20:34:29;;;;;;;3.15;2.47;;;9.50;58.70;;;;;;5091423;28;20034;-59
2022/10/31 20:36:55;;;;;;;4.18;2.70;;;9.50;58.90;;;;;;5093205;28;20330;-59
2022/10/31 20:39:20;;;;;;;3.55;2.65;;;9.40;58.90;;;;;;5093973;28;20515;-60
2022/10/31 20:41:47;;;;;;;3.20;2.80;;;9.40;59.00;;;;;;5094062;28;20475;-60
2022/10/31 20:44:13;;;;;;;3.38;2.60;;;9.40;59.10;;;;;;5092860;28;20059;-59
2022/10/31 20:46:39;;;;;;;4.03;2.67;;;9.40;59.20;;;;;;5093689;28;20056;-59
2022/10/31 20:49:04;;;;;;;3.35;2.83;;;9.40;59.20;;;;;;5093545;28;20038;-60
2022/10/31 20:51:30;;;;;;;3.80;2.90;;;9.40;59.20;;;;;;5094031;28;20050;-60
2022/10/31 20:53:57;;;;;;;3.30;2.40;;;9.40;59.20;;;;;;5092519;28;20028;-59
2022/10/31 20:56:25;;;;;;;3.20;2.47;;;9.40;59.20;;;;;;5093461;28;20059;-59
2022/10/31 20:58:52;;;;;;;2.78;2.50;;;9.40;59.00;;;;;;5094236;28;20085;-60
2022/10/31 21:01:21;;;;;;;4.45;2.80;;;9.40;58.90;;;;;;5093917;28;20454;-59
2022/10/31 21:03:47;;;;;;;3.45;2.55;;;9.40;58.90;;;;;;5092603;28;20463;-60
2022/10/31 21:06:14;;;;;;;3.00;2.60;;;9.40;58.90;;;;;;5093110;28;20031;-60
2022/10/31 21:08:41;;;;;;;2.95;2.50;;;9.30;58.70;;;;;;5093195;28;20020;-60
2022/10/31 21:11:08;;;;;;;3.88;2.38;;;9.30;58.60;;;;;;5093689;28;20020;-60
2022/10/31 21:13:38;;;;;;;4.70;2.75;;;9.30;58.60;;;;;;5092735;28;20271;-59
2022/10/31 21:16:07;;;;;;;2.50;2.20;;;9.30;58.60;;;;;;5093321;28;20039;-60
2022/10/31 21:18:41;;;;;;;3.20;2.40;;;9.30;58.50;;;;;;5093180;28;20024;-59
2022/10/31 21:21:16;;;;;;;3.28;2.40;;;9.30;58.50;;;;;;5093784;28;20020;-60
2022/10/31 21:23:42;;;;;;;3.50;2.65;;;9.30;58.40;;;;;;5092452;28;20028;-60
2022/10/31 21:26:17;;;;;;;3.95;2.20;;;9.20;58.20;;;;;;5092833;28;20450;-60
2022/10/31 21:28:43;;;;;;;3.28;2.35;;;9.20;58.30;;;;;;5092470;28;20032;-59
2022/10/31 21:31:11;;;;;;;2.42;2.22;;;9.20;58.30;;;;;;5092499;28;20028;-60
2022/10/31 21:33:37;;;;;;;2.85;2.30;;;9.20;58.20;;;;;;5083526;28;20032;-60
2022/10/31 21:36:04;;;;;;;3.03;2.50;;;9.20;58.20;;;;;;5091953;28;20031;-59
2022/10/31 21:38:30;;;;;;;4.63;2.85;;;9.20;58.20;;;;;;5079254;28;20027;-60
2022/10/31 21:41:04;;;;;;;3.10;2.60;;;9.10;58.00;;;;;;5081359;28;20025;-59
2022/10/31 21:43:29;;;;;;;4.88;2.80;;;9.10;58.00;;;;;;5092331;28;20391;-60
2022/10/31 21:46:02;;;;;;;3.38;2.70;;;9.10;57.90;;;;;;5091771;28;20038;-60
2022/10/31 21:48:27;;;;;;;3.10;2.42;;;9.10;58.10;;;;;;5093484;28;20475;-60
2022/10/31 21:50:53;;;;;;;5.95;2.70;;;9.10;58.10;;;;;;5093096;28;20031;-60
2022/10/31 21:56:03;;;;;;;4.50;2.50;;;9.10;58.00;;;;;;5091862;28;20089;-58
2022/10/31 21:58:29;;;;;;;2.67;2.47;;;9.10;58.20;;;;;;5093305;28;20032;-60
2022/10/31 22:01:02;;;;;;;2.67;2.47;;;9.00;58.00;;;;;;5092281;28;20201;-60
2022/10/31 22:03:28;;;;;;;2.67;2.20;;;9.00;58.00;;;;;;5092346;28;20024;-60
2022/10/31 22:05:53;;;;;;;2.50;2.30;;;9.00;57.90;;;;;;5091898;28;20489;-60
2022/10/31 22:08:19;;;;;;;3.78;3.00;;;9.00;57.90;;;;;;5092851;28;20467;-60
2022/10/31 22:10:44;;;;;;;3.63;2.70;;;9.00;57.80;;;;;;5092483;28;20471;-60
2022/10/31 22:13:10;;;;;;;3.72;2.95;;;9.00;57.80;;;;;;5092974;28;20036;-60
2022/10/31 22:15:36;;;;;;;3.72;3.03;;;9.00;57.90;;;;;;5091878;28;20390;-59
2022/10/31 22:18:01;;;;;;;4.22;2.70;;;8.90;57.80;;;;;;5092862;28;20047;-60
2022/10/31 22:20:27;;;;;;;3.38;2.70;;;8.90;57.80;;;;;;5092454;28;20021;-60
2022/10/31 22:22:52;;;;;;;2.85;2.35;;;9.00;57.90;;;;;;5092093;28;20028;-60
2022/10/31 22:25:18;;;;;;;2.95;2.60;;;8.90;57.80;;;;;;5092054;28;20039;-60
2022/10/31 22:27:44;;;;;;;4.20;2.58;;;8.90;57.90;;;;;;5092019;28;20032;-60
2022/10/31 22:30:10;;;;;;;3.40;2.70;;;8.80;57.80;;;;;;5092345;28;20487;-60
2022/10/31 22:32:35;;;;;;;4.35;2.97;;;8.80;58.10;;;;;;5091199;28;20090;-60
2022/10/31 22:35:01;;;;;;;4.55;3.10;;;8.70;58.00;;;;;;5091094;28;20059;-60
2022/10/31 22:37:27;;;;;;;3.83;2.70;;;8.70;58.10;;;;;;5092432;28;20020;-59
2022/10/31 22:39:52;;;;;;;4.22;2.53;;;8.70;58.10;;;;;;5091771;28;20468;-60
2022/10/31 22:42:18;;;;;;;3.40;2.83;;;8.70;58.20;;;;;;5092359;28;20387;-60
2022/10/31 22:44:43;;;;;;;3.78;2.78;;;8.70;58.20;;;;;;5091096;28;20040;-58
2022/10/31 22:47:09;;;;;;;3.03;2.50;;;8.60;58.20;;;;;;5092318;28;20028;-60
2022/10/31 22:49:35;;;;;;;3.78;2.80;;;8.60;58.30;;;;;;5091099;28;20039;-60
2022/10/31 22:52:02;;;;;;;3.38;2.65;;;8.60;58.30;;;;;;5092380;28;20027;-60
2022/10/31 22:54:28;;;;;;;3.85;2.58;;;8.60;58.30;;;;;;5091501;28;20028;-60
2022/10/31 22:56:54;;;;;;;4.78;3.28;;;8.60;58.40;;;;;;5092049;28;20039;-59
2022/10/31 22:59:19;;;;;;;3.22;2.72;;;8.60;58.30;;;;;;5091557;28;20055;-60
2022/10/31 23:01:45;;;;;;;3.72;2.85;;;8.50;58.50;;;;;;5091929;28;20020;-60
2022/10/31 23:04:12;;;;;;;4.15;3.03;;;8.50;58.40;;;;;;5091673;28;20012;-60
2022/10/31 23:06:37;;;;;;;3.33;2.65;;;8.50;58.50;;;;;;5091000;28;20027;-59
2022/10/31 23:09:06;;;;;;;3.88;2.97;;;8.50;58.60;;;;;;5087374;28;20020;-60
2022/10/31 23:11:37;;;;;;;4.63;2.92;;;8.50;58.60;;;;;;5091401;28;20028;-60
2022/10/31 23:14:17;;;;;;;3.75;2.90;;;8.50;58.70;;;;;;5091781;28;20035;-60
2022/10/31 23:16:50;;;;;;;3.55;2.78;;;8.50;58.70;;;;;;5090950;28;20027;-60
2022/10/31 23:19:17;;;;;;;2.97;2.60;;;8.40;58.80;;;;;;5091449;28;20355;-60
2022/10/31 23:21:55;;;;;;;3.75;2.65;;;8.40;58.80;;;;;;5091611;28;20111;-60
2022/10/31 23:24:28;;;;;;;4.00;2.70;;;8.40;58.80;;;;;;5092200;28;20031;-60
2022/10/31 23:27:08;;;;;;;4.03;2.53;;;8.40;58.90;;;;;;5090115;28;20099;-60
2022/10/31 23:29:51;;;;;;;5.22;2.88;;;8.40;58.80;;;;;;5091006;28;20123;-59
2022/10/31 23:32:21;;;;;;;3.80;3.00;;;8.40;58.80;;;;;;5091641;28;20495;-60
2022/10/31 23:34:49;;;;;;;5.40;3.10;;;8.40;58.80;;;;;;5090707;28;20065;-60
2022/10/31 23:37:16;;;;;;;3.55;3.13;;;8.40;58.80;;;;;;5091472;28;20020;-60
2022/10/31 23:39:42;;;;;;;4.28;3.30;;;8.40;59.00;;;;;;5090239;28;20375;-60
2022/10/31 23:42:08;;;;;;;4.40;3.00;;;8.30;58.90;;;;;;5091596;28;20024;-59
2022/10/31 23:44:34;;;;;;;2.95;2.53;;;8.30;58.90;;;;;;5090703;28;20020;-59
2022/10/31 23:47:00;;;;;;;5.47;3.80;;;8.20;58.90;;;;;;5091766;28;20493;-60
2022/10/31 23:49:26;;;;;;;3.42;2.63;;;8.20;58.90;;;;;;5084311;28;20024;-60
2022/10/31 23:51:51;;;;;;;4.18;3.30;;;8.20;59.00;;;;;;5091246;28;20498;-59
2022/10/31 23:54:17;;;;;;;3.20;2.90;;;8.20;59.10;;;;;;5077811;28;20484;-60
2022/10/31 23:56:43;;;;;;;4.43;3.00;;;8.20;59.10;;;;;;5090543;28;20032;-59
2022/10/31 23:59:09;;;;;;;3.53;3.05;;;8.20;59.10;;;;;;5090579;28;20024;-60
